Time;durP1;ratioP1;P1;durP2;ratioP2;P2;SDS_P1;SDS_P2;PMS_P1;PMS_P2;Temp;Humidity;BMP_temperature;BMP_pressure;BME280_temperature;BME280_humidity;BME280_pressure;Samples;Min_cycle;Max_cycle;Signal;HPM_P1;HPM_P2
2021/01/26 00:01:28;;;;;;;52.75;26.77;;;;;;;1.34;93.46;100197.47;5006085;28;20062;-76
2021/01/26 00:03:55;;;;;;;50.80;27.52;;;;;;;1.29;93.41;100199.34;5028853;28;20054;-77
2021/01/26 00:06:22;;;;;;;55.13;28.33;;;;;;;1.28;93.39;100201.09;4994116;28;20058;-77
2021/01/26 00:08:49;;;;;;;54.00;27.73;;;;;;;1.26;93.35;100195.09;5000863;28;20053;-77
2021/01/26 00:11:16;;;;;;;49.10;26.55;;;;;;;1.46;92.60;100197.16;4987569;28;20181;-76
2021/01/26 00:13:43;;;;;;;54.78;26.48;;;;;;;1.49;91.63;100203.09;4990709;28;20443;-77
2021/01/26 00:16:09;;;;;;;51.28;25.42;;;;;;;1.51;91.84;100208.25;4995317;28;20550;-78
2021/01/26 00:18:36;;;;;;;48.28;25.40;;;;;;;1.44;91.76;100211.88;4985247;28;20038;-76
2021/01/26 00:21:04;;;;;;;46.10;24.20;;;;;;;1.44;91.69;100211.88;5009266;28;20038;-77
2021/01/26 00:23:31;;;;;;;46.47;22.98;;;;;;;1.36;90.72;100214.72;5011980;28;20121;-76
2021/01/26 00:25:58;;;;;;;41.50;24.35;;;;;;;1.09;91.57;100221.50;4999025;28;20047;-76
2021/01/26 00:28:25;;;;;;;53.78;25.33;;;;;;;1.08;92.42;100224.09;4993115;28;20689;-78
2021/01/26 00:30:51;;;;;;;48.47;25.15;;;;;;;1.18;92.77;100216.06;5014826;28;20050;-78
2021/01/26 00:33:23;;;;;;;43.45;23.52;;;;;;;1.17;92.48;100229.03;4996954;28;20895;-78
2021/01/26 00:35:51;;;;;;;44.40;22.88;;;;;;;1.23;92.27;100221.97;5005592;28;20273;-76
2021/01/26 00:38:18;;;;;;;44.10;23.85;;;;;;;1.26;91.89;100221.91;5026780;28;20073;-78
2021/01/26 00:40:46;;;;;;;48.33;24.85;;;;;;;1.21;92.06;100228.06;5028860;28;20066;-78
2021/01/26 00:43:14;;;;;;;47.83;23.77;;;;;;;1.16;91.79;100235.97;5029810;28;20042;-78
2021/01/26 00:45:41;;;;;;;48.08;24.40;;;;;;;0.90;92.87;100236.69;5027520;28;20058;-78
2021/01/26 00:48:08;;;;;;;47.08;24.45;;;;;;;1.01;92.50;100233.81;5004392;28;20030;-76
2021/01/26 00:50:35;;;;;;;49.10;26.50;;;;;;;1.17;92.09;100235.13;5005104;28;20291;-78
2021/01/26 00:53:03;;;;;;;40.13;22.92;;;;;;;1.27;91.45;100238.31;5008337;28;20075;-76
2021/01/26 00:55:29;;;;;;;42.30;22.77;;;;;;;1.26;91.56;100237.47;5003335;28;20065;-77
2021/01/26 00:57:56;;;;;;;40.92;23.55;;;;;;;1.21;91.09;100241.88;5001320;28;20042;-77
2021/01/26 01:00:32;;;;;;;45.30;22.45;;;;;;;1.14;90.56;100239.53;5001073;28;20106;-76
2021/01/26 01:02:59;;;;;;;46.95;23.67;;;;;;;1.24;91.04;100233.19;4999895;28;20038;-77
2021/01/26 01:05:26;;;;;;;43.17;23.25;;;;;;;1.22;90.93;100240.19;5001896;28;20057;-77
2021/01/26 01:07:53;;;;;;;48.50;25.58;;;;;;;1.33;90.58;100242.47;4978565;28;20127;-77
2021/01/26 01:10:26;;;;;;;39.78;23.67;;;;;;;1.36;90.16;100245.00;4972490;28;20054;-78
2021/01/26 01:12:53;;;;;;;44.17;23.50;;;;;;;1.27;89.82;100244.34;4995739;28;20109;-78
2021/01/26 01:15:20;;;;;;;38.60;22.60;;;;;;;1.00;90.26;100245.91;5009805;28;20058;-78
2021/01/26 01:17:47;;;;;;;43.95;23.77;;;;;;;1.03;90.07;100255.34;5014273;28;20059;-77
2021/01/26 01:20:16;;;;;;;42.70;23.92;;;;;;;1.09;90.72;100250.00;5012081;28;20531;-77
2021/01/26 01:22:43;;;;;;;47.17;24.52;;;;;;;1.20;90.49;100260.09;5002915;28;20113;-76
2021/01/26 01:25:11;;;;;;;47.40;23.60;;;;;;;1.19;90.64;100250.63;5005865;28;20092;-77
2021/01/26 01:27:38;;;;;;;53.65;24.88;;;;;;;1.17;90.04;100248.06;4992151;28;20126;-79
2021/01/26 01:30:07;;;;;;;41.42;24.30;;;;;;;1.23;90.06;100254.84;4976555;28;20088;-78
2021/01/26 01:32:34;;;;;;;43.45;25.35;;;;;;;1.02;90.11;100256.22;4986330;28;20082;-77
2021/01/26 01:35:01;;;;;;;45.22;23.35;;;;;;;1.12;89.81;100249.91;5001883;28;20058;-78
2021/01/26 01:37:28;;;;;;;44.33;25.00;;;;;;;1.14;90.42;100252.47;4979323;28;20065;-78
2021/01/26 01:39:55;;;;;;;42.55;24.80;;;;;;;1.22;90.51;100255.72;4969809;28;20057;-78
2021/01/26 01:42:22;;;;;;;41.38;24.60;;;;;;;1.22;89.39;100253.13;4985003;28;20059;-77
2021/01/26 01:44:49;;;;;;;50.40;24.67;;;;;;;1.20;89.98;100254.91;4988457;28;20050;-78
2021/01/26 01:47:25;;;;;;;44.97;26.95;;;;;;;1.20;89.54;100257.50;4983155;28;20066;-78
2021/01/26 01:49:55;;;;;;;48.72;25.85;;;;;;;1.27;89.10;100246.94;5023423;28;20056;-77
2021/01/26 01:52:25;;;;;;;49.30;26.33;;;;;;;1.16;88.98;100253.28;4993563;28;20030;-78
2021/01/26 01:54:57;;;;;;;48.00;25.88;;;;;;;0.99;89.93;100248.53;4985950;28;20065;-78
2021/01/26 01:57:28;;;;;;;41.47;24.35;;;;;;;1.08;89.48;100253.50;4972329;28;20067;-77
2021/01/26 01:59:58;;;;;;;47.65;26.50;;;;;;;1.17;89.37;100252.38;4996413;28;20062;-78
2021/01/26 02:02:26;;;;;;;46.83;26.50;;;;;;;1.05;88.65;100248.38;4995568;28;20050;-76
2021/01/26 02:04:57;;;;;;;47.75;25.25;;;;;;;1.06;88.67;100249.22;4989705;28;20078;-77
2021/01/26 02:07:24;;;;;;;50.08;26.25;;;;;;;1.01;88.28;100245.00;4982240;28;20697;-77
2021/01/26 02:09:51;;;;;;;41.78;24.65;;;;;;;0.93;88.67;100246.09;4976067;28;20058;-77
2021/01/26 02:12:17;;;;;;;47.90;26.67;;;;;;;0.96;88.54;100248.63;4976254;28;20085;-77
2021/01/26 02:14:49;;;;;;;50.55;25.85;;;;;;;1.01;88.72;100251.94;4992219;28;20058;-78
2021/01/26 02:17:54;;;;;;;45.47;24.30;;;;;;;0.90;88.11;100253.94;4972780;28;20226;-78
2021/01/26 02:21:05;;;;;;;46.30;24.83;;;;;;;0.99;87.82;100253.72;4999633;28;20070;-78
2021/01/26 02:23:51;;;;;;;42.88;25.05;;;;;;;1.03;87.54;100247.56;4992492;28;20049;-78
2021/01/26 02:26:41;;;;;;;51.15;24.23;;;;;;;1.21;87.15;100254.84;4970307;28;20070;-78
2021/01/26 02:29:11;;;;;;;44.20;25.08;;;;;;;0.99;87.73;100253.72;4965521;28;20059;-76
2021/01/26 02:31:47;;;;;;;44.60;22.67;;;;;;;1.00;87.30;100255.44;4955374;28;20118;-78
2021/01/26 02:34:20;;;;;;;49.92;24.67;;;;;;;1.11;87.96;100265.50;4982147;28;20169;-78
2021/01/26 02:36:59;;;;;;;43.83;24.02;;;;;;;1.23;87.35;100267.78;4974827;28;20050;-76
2021/01/26 02:39:53;;;;;;;44.83;24.17;;;;;;;0.78;87.45;100264.63;4975911;28;20065;-78
2021/01/26 02:42:27;;;;;;;45.22;24.25;;;;;;;0.92;87.59;100270.31;4979830;28;20141;-77
2021/01/26 02:45:02;;;;;;;48.97;26.13;;;;;;;0.88;87.29;100268.69;4970995;28;20169;-78
2021/01/26 02:48:12;;;;;;;47.38;23.92;;;;;;;0.74;87.41;100271.63;4996668;28;20071;-77
2021/01/26 02:50:50;;;;;;;40.08;22.58;;;;;;;0.66;87.97;100279.56;4982352;28;20063;-78
2021/01/26 02:53:39;;;;;;;44.08;23.45;;;;;;;0.71;87.63;100272.53;5013654;28;20035;-77
2021/01/26 02:56:30;;;;;;;45.90;23.70;;;;;;;0.66;88.12;100283.91;4994137;28;20077;-78
2021/01/26 02:59:09;;;;;;;41.75;23.15;;;;;;;0.71;87.39;100277.72;4985037;28;20160;-77
2021/01/26 03:01:39;;;;;;;44.55;24.25;;;;;;;0.72;87.65;100278.56;4999652;28;20419;-77
2021/01/26 03:04:15;;;;;;;47.15;24.02;;;;;;;0.76;86.96;100283.63;4998026;28;20116;-78
2021/01/26 03:06:44;;;;;;;47.53;25.02;;;;;;;0.70;87.55;100285.53;4984551;28;20050;-78
2021/01/26 03:09:15;;;;;;;40.33;23.05;;;;;;;0.71;87.23;100279.47;4996119;28;20078;-77
2021/01/26 03:11:46;;;;;;;42.97;22.90;;;;;;;0.64;86.92;100286.53;4998768;28;20596;-77
2021/01/26 03:14:18;;;;;;;40.78;21.40;;;;;;;0.75;87.35;100288.88;4984100;28;20158;-77
2021/01/26 03:16:52;;;;;;;45.58;23.58;;;;;;;0.72;87.64;100284.63;5001226;28;20058;-78
2021/01/26 03:19:23;;;;;;;45.90;24.52;;;;;;;0.65;88.01;100293.41;4997122;28;20107;-77
2021/01/26 03:21:54;;;;;;;43.42;22.33;;;;;;;0.69;87.70;100297.66;4971210;28;20057;-78
2021/01/26 03:24:28;;;;;;;54.60;22.45;;;;;;;0.66;87.31;100294.25;5020610;23;20084;-80
2021/01/26 03:26:56;;;;;;;47.00;24.80;;;;;;;0.70;87.23;100293.31;4992280;28;20051;-79
2021/01/26 03:29:28;;;;;;;39.63;22.38;;;;;;;0.86;87.61;100297.25;4953655;28;20068;-77
2021/01/26 03:31:58;;;;;;;45.53;23.98;;;;;;;0.72;86.93;100288.94;4983682;28;20039;-78
2021/01/26 03:34:26;;;;;;;42.00;22.92;;;;;;;0.58;87.15;100291.00;4970444;28;20050;-77
2021/01/26 03:36:53;;;;;;;37.25;21.92;;;;;;;0.61;86.98;100291.78;4971902;28;20062;-79
2021/01/26 03:39:20;;;;;;;38.85;21.60;;;;;;;0.57;87.29;100290.16;5003580;28;20089;-79
2021/01/26 03:41:47;;;;;;;49.28;24.23;;;;;;;0.55;87.68;100296.28;4990470;28;20058;-80
2021/01/26 03:44:14;;;;;;;43.15;22.52;;;;;;;0.40;87.85;100295.72;4987702;28;20222;-79
2021/01/26 03:46:48;;;;;;;41.70;24.15;;;;;;;0.22;88.98;100298.72;4981305;28;20167;-79
2021/01/26 03:49:57;;;;;;;36.50;21.75;;;;;;;0.28;88.52;100296.00;4995155;28;20101;-79
2021/01/26 03:52:43;;;;;;;42.38;23.27;;;;;;;-0.11;89.08;100298.53;4988962;28;20089;-77
2021/01/26 03:55:38;;;;;;;48.53;23.52;;;;;;;-0.29;90.23;100301.50;4986292;28;20051;-78
2021/01/26 03:58:11;;;;;;;45.17;23.40;;;;;;;-0.39;90.81;100297.41;4992488;28;20038;-79
2021/01/26 04:01:00;;;;;;;47.70;25.02;;;;;;;-0.27;91.37;100298.00;4997941;28;20054;-78
2021/01/26 04:03:47;;;;;;;43.38;24.42;;;;;;;-0.49;91.15;100301.91;5007344;28;20133;-79
2021/01/26 04:06:33;;;;;;;52.90;25.88;;;;;;;-0.54;91.03;100295.94;5013749;28;20050;-79
2021/01/26 04:09:02;;;;;;;;;;;;;;;-0.64;91.54;100294.41;4998376;28;20107;-78
2021/01/26 04:11:37;;;;;;;49.03;23.17;;;;;;;-0.65;92.41;100297.88;5016937;28;19925;-79
2021/01/26 04:14:20;;;;;;;49.28;25.27;;;;;;;-0.55;91.03;100302.84;5010544;28;20050;-79
2021/01/26 04:16:54;;;;;;;43.92;22.45;;;;;;;-0.64;91.44;100297.84;5014333;28;20064;-79
2021/01/26 04:19:27;;;;;;;55.80;25.00;;;;;;;-0.68;91.49;100298.78;4996571;28;20069;-78
2021/01/26 04:21:54;;;;;;;48.13;25.30;;;;;;;-0.66;91.92;100294.44;5015872;28;20066;-80
2021/01/26 04:24:21;;;;;;;50.38;24.77;;;;;;;-0.76;91.99;100298.09;4984388;28;20078;-79
2021/01/26 04:26:49;;;;;;;46.80;24.77;;;;;;;-0.77;92.01;100297.25;4996438;28;20635;-79
2021/01/26 04:29:16;;;;;;;48.10;24.52;;;;;;;-0.96;92.09;100302.72;4997410;28;20142;-78
2021/01/26 04:31:43;;;;;;;54.63;26.27;;;;;;;-0.90;93.04;100300.91;4999652;28;20054;-78
2021/01/26 04:34:10;;;;;;;53.70;27.13;;;;;;;-0.73;92.71;100303.19;5004958;28;20034;-79
2021/01/26 04:36:37;;;;;;;51.70;25.65;;;;;;;-0.62;92.22;100303.00;4986282;28;20073;-79
2021/01/26 04:39:04;;;;;;;52.40;26.63;;;;;;;-0.77;91.66;100311.88;4989140;28;20050;-79
2021/01/26 04:41:42;;;;;;;48.17;25.83;;;;;;;-0.78;92.59;100308.44;5016203;28;20061;-79
2021/01/26 04:44:29;;;;;;;50.03;26.92;;;;;;;-1.00;92.85;100306.25;4981590;28;20050;-77
2021/01/26 04:47:26;;;;;;;54.45;27.10;;;;;;;-0.86;93.56;100304.28;4979219;28;20112;-78
2021/01/26 04:50:03;;;;;;;50.70;25.23;;;;;;;-0.59;92.62;100308.94;4987900;28;20070;-79
2021/01/26 04:52:49;;;;;;;52.20;26.45;;;;;;;-0.82;91.66;100308.50;4985907;28;20050;-78
2021/01/26 04:55:41;;;;;;;49.83;26.20;;;;;;;-0.75;91.94;100310.13;4979540;28;20104;-78
2021/01/26 04:58:49;;;;;;;51.60;26.50;;;;;;;-0.94;92.66;100307.00;4997525;28;20259;-78
2021/01/26 05:01:28;;;;;;;50.58;24.50;;;;;;;-0.59;91.94;100303.78;4994867;28;20054;-79
2021/01/26 05:04:15;;;;;;;48.13;25.83;;;;;;;-0.99;92.10;100303.66;4991083;28;20035;-80
2021/01/26 05:06:47;;;;;;;48.65;26.30;;;;;;;-1.21;92.96;100303.16;4989964;28;20045;-80
2021/01/26 05:09:17;;;;;;;52.58;24.67;;;;;;;-1.16;93.49;100298.75;4977609;28;20054;-79
2021/01/26 05:11:45;;;;;;;49.30;27.33;;;;;;;-1.13;93.50;100306.44;4980990;28;20422;-78
2021/01/26 05:14:22;;;;;;;57.63;26.15;;;;;;;-1.11;93.58;100304.69;5000884;28;20050;-78
2021/01/26 05:17:10;;;;;;;50.58;25.73;;;;;;;-1.22;93.35;100304.00;5001340;28;20436;-79
2021/01/26 05:19:40;;;;;;;45.90;24.17;;;;;;;-1.16;93.54;100309.09;4996095;28;20034;-77
2021/01/26 05:22:28;;;;;;;50.58;25.40;;;;;;;-1.19;93.81;100309.13;4997932;28;20056;-78
2021/01/26 05:25:20;;;;;;;47.53;25.15;;;;;;;-1.09;93.20;100310.69;4997827;28;20082;-79
2021/01/26 05:27:48;;;;;;;48.05;23.85;;;;;;;-1.07;92.94;100314.09;4982016;28;20115;-78
2021/01/26 05:30:29;;;;;;;50.28;25.70;;;;;;;-1.04;92.72;100310.59;4975502;28;20139;-78
2021/01/26 05:32:57;;;;;;;56.47;27.60;;;;;;;-1.17;91.85;100315.13;4983807;28;20046;-80
2021/01/26 05:35:25;;;;;;;46.28;24.85;;;;;;;-1.31;93.37;100319.63;4987235;28;20050;-79
2021/01/26 05:37:53;;;;;;;50.03;27.23;;;;;;;-1.26;93.48;100315.28;4985793;28;20074;-80
2021/01/26 05:40:34;;;;;;;45.90;25.30;;;;;;;-1.29;93.54;100315.31;5018179;28;20073;-78
2021/01/26 05:43:04;;;;;;;52.83;23.98;;;;;;;-1.41;93.99;100318.09;4988757;28;20022;-79
2021/01/26 05:45:35;;;;;;;46.28;25.25;;;;;;;-1.44;93.75;100326.75;4984050;28;20061;-79
2021/01/26 05:48:10;;;;;;;47.67;23.90;;;;;;;-1.54;93.63;100331.16;4993016;28;20722;-77
2021/01/26 05:50:39;;;;;;;50.38;24.13;;;;;;;-1.70;94.63;100327.09;4993160;28;20038;-78
2021/01/26 05:53:27;;;;;;;57.15;25.63;;;;;;;-1.61;94.51;100333.88;4976397;28;20061;-78
2021/01/26 05:56:11;;;;;;;46.00;24.40;;;;;;;-1.55;95.00;100332.03;4978171;28;20070;-80
2021/01/26 05:58:40;;;;;;;47.53;24.33;;;;;;;-1.39;94.42;100324.94;4979525;28;20118;-78
2021/01/26 06:01:22;;;;;;;53.05;24.08;;;;;;;-1.41;93.55;100325.81;4983830;28;20062;-80
2021/01/26 06:04:14;;;;;;;44.95;22.50;;;;;;;-1.32;93.62;100326.53;5002709;28;20070;-79
2021/01/26 06:06:51;;;;;;;43.33;23.38;;;;;;;-1.51;93.46;100330.28;5000006;28;20628;-80
2021/01/26 06:09:37;;;;;;;47.65;24.58;;;;;;;-1.52;94.02;100338.06;4992058;28;20066;-79
2021/01/26 06:12:21;;;;;;;43.85;23.30;;;;;;;-1.53;93.38;100332.03;4990646;28;20078;-79
2021/01/26 06:14:54;;;;;;;49.92;26.00;;;;;;;-1.43;94.35;100345.66;4984145;28;20124;-80
2021/01/26 06:17:23;;;;;;;47.63;25.55;;;;;;;-1.61;94.03;100345.03;5002817;28;20054;-80
2021/01/26 06:20:13;;;;;;;51.97;25.35;;;;;;;-1.99;95.06;100349.84;4997431;28;20102;-79
2021/01/26 06:22:40;;;;;;;59.28;28.80;;;;;;;-2.19;95.77;100350.94;5004590;28;20110;-79
2021/01/26 06:25:13;;;;;;;57.80;26.83;;;;;;;-2.01;96.15;100352.44;4988577;28;20047;-77
2021/01/26 06:28:06;;;;;;;54.50;26.25;;;;;;;-2.31;96.79;100357.06;4984963;28;20184;-79
2021/01/26 06:30:42;;;;;;;58.58;26.38;;;;;;;-1.91;97.69;100355.75;4990139;28;20144;-79
2021/01/26 06:33:28;;;;;;;54.72;25.52;;;;;;;-1.75;96.20;100359.00;4976795;28;20170;-80
2021/01/26 06:36:05;;;;;;;;;;;;;;;-1.79;96.09;100359.03;5018485;28;20069;-82
2021/01/26 06:38:45;;;;;;;51.28;24.77;;;;;;;-1.81;95.88;100362.50;5012373;28;19921;-81
2021/01/26 06:41:33;;;;;;;46.60;24.83;;;;;;;-1.62;95.05;100355.38;4984992;28;20038;-82
2021/01/26 06:44:32;;;;;;;50.53;24.65;;;;;;;-1.82;95.63;100360.81;4995936;28;20046;-81
2021/01/26 06:47:20;;;;;;;53.13;24.77;;;;;;;-1.77;95.35;100359.00;5011228;28;20355;-81
2021/01/26 06:50:03;;;;;;;48.20;23.90;;;;;;;-1.78;95.97;100365.06;4999438;28;20082;-80
2021/01/26 06:53:04;;;;;;;49.35;25.17;;;;;;;-1.79;95.64;100360.78;4975709;28;20844;-80
2021/01/26 06:55:53;;;;;;;48.35;24.25;;;;;;;-1.82;95.78;100369.41;4977217;28;20058;-81
2021/01/26 06:58:42;;;;;;;50.70;24.10;;;;;;;-1.44;95.16;100360.31;4995028;28;20038;-82
2021/01/26 07:01:20;;;;;;;45.13;25.02;;;;;;;-1.51;93.60;100363.84;4970998;28;20142;-79
2021/01/26 07:04:06;;;;;;;43.00;23.17;;;;;;;-1.29;93.38;100372.97;4993413;28;20042;-81
2021/01/26 07:07:27;;;;;;;45.85;22.58;;;;;;;-1.43;93.13;100368.91;4995466;28;20042;-82
2021/01/26 07:10:19;;;;;;;49.92;20.38;;;;;;;-1.16;92.69;100368.50;4915796;29;20099;-83
2021/01/26 07:13:10;;;;;;;36.70;20.08;;;;;;;-1.10;92.32;100367.53;4996708;28;20050;-81
2021/01/26 07:16:05;;;;;;;41.03;20.67;;;;;;;-1.06;91.82;100364.03;5030412;28;20067;-79
2021/01/26 07:18:54;;;;;;;35.20;20.48;;;;;;;-1.16;91.28;100370.22;5020719;28;20035;-83
2021/01/26 07:21:50;;;;;;;40.60;19.80;;;;;;;-1.24;91.33;100370.34;4983029;28;20053;-82
2021/01/26 07:24:26;;;;;;;44.63;22.40;;;;;;;-1.20;91.36;100372.00;4981863;28;20066;-80
2021/01/26 07:27:34;;;;;;;43.40;19.77;;;;;;;-1.25;91.31;100370.38;4996208;28;20253;-85
2021/01/26 07:30:06;;;;;;;37.28;19.23;;;;;;;-1.11;91.52;100369.28;5011941;28;20047;-81
2021/01/26 07:32:55;;;;;;;38.13;20.63;;;;;;;-1.10;90.93;100364.97;4988947;28;20066;-81
2021/01/26 07:35:26;;;;;;;33.08;19.35;;;;;;;-0.99;90.00;100368.25;5008275;28;20062;-82
2021/01/26 07:38:15;;;;;;;35.97;19.83;;;;;;;-0.74;89.88;100370.41;5005816;28;20099;-80
2021/01/26 07:40:55;;;;;;;44.85;21.00;;;;;;;-0.54;88.39;100378.66;4979218;28;20089;-82
2021/01/26 07:44:00;;;;;;;30.92;17.60;;;;;;;-0.57;88.36;100378.75;5019480;28;20057;-82
2021/01/26 07:46:38;;;;;;;36.55;17.55;;;;;;;-0.29;88.04;100376.50;4989414;28;20061;-81
2021/01/26 07:49:18;;;;;;;36.75;19.48;;;;;;;-0.26;87.75;100385.06;4987453;28;20612;-79
2021/01/26 07:51:48;;;;;;;34.47;17.73;;;;;;;-0.05;86.22;100391.56;5001282;28;20038;-80
2021/01/26 07:54:42;;;;;;;31.77;16.92;;;;;;;-0.06;86.33;100389.00;5002743;28;20046;-80
2021/01/26 07:57:16;;;;;;;34.00;17.23;;;;;;;0.03;85.32;100396.59;5003857;28;20061;-83
2021/01/26 07:59:51;;;;;;;34.33;18.75;;;;;;;-0.12;85.86;100392.56;4992431;28;20571;-81
2021/01/26 08:02:27;;;;;;;27.38;17.25;;;;;;;0.00;86.11;100394.09;5008978;28;20088;-81
2021/01/26 08:04:55;;;;;;;32.72;16.75;;;;;;;0.16;85.40;100403.25;4995068;28;20168;-83
2021/01/26 08:07:27;;;;;;;39.50;18.90;;;;;;;0.19;84.73;100397.16;4996175;28;20034;-81
2021/01/26 08:09:59;;;;;;;37.13;19.08;;;;;;;0.25;83.78;100395.28;4990310;28;20046;-80
2021/01/26 08:12:29;;;;;;;32.65;18.58;;;;;;;0.23;84.21;100398.81;5015962;28;20279;-81
2021/01/26 08:15:16;;;;;;;34.97;20.38;;;;;;;0.33;83.51;100408.09;5011271;28;20086;-81
2021/01/26 08:17:43;;;;;;;32.25;18.13;;;;;;;1.16;81.74;100406.25;5015698;28;20100;-83
2021/01/26 08:20:20;;;;;;;32.00;17.77;;;;;;;1.85;77.45;100407.13;5004841;28;20034;-79
2021/01/26 08:22:58;;;;;;;28.08;16.15;;;;;;;2.60;74.79;100405.84;5000590;28;20049;-76
2021/01/26 08:25:27;;;;;;;26.45;16.60;;;;;;;1.93;75.18;100406.00;5008706;28;20194;-79
2021/01/26 08:27:58;;;;;;;29.50;18.55;;;;;;;1.13;78.58;100411.53;5003098;28;20066;-78
2021/01/26 08:30:50;;;;;;;27.98;16.83;;;;;;;0.88;80.40;100424.19;4996696;28;20090;-83
2021/01/26 08:33:18;;;;;;;28.10;16.52;;;;;;;0.58;81.37;100423.94;5004210;28;20161;-82
2021/01/26 08:36:06;;;;;;;30.42;18.52;;;;;;;0.35;83.17;100431.34;5014250;28;20074;-79
2021/01/26 08:38:57;;;;;;;34.55;19.08;;;;;;;0.67;82.62;100434.13;5004877;28;20106;-81
2021/01/26 08:41:51;;;;;;;32.95;19.45;;;;;;;0.75;81.80;100426.19;5010353;28;20402;-81
2021/01/26 08:44:18;;;;;;;38.90;18.98;;;;;;;0.66;81.75;100431.56;4983358;28;20056;-81
2021/01/26 08:46:47;;;;;;;41.67;21.17;;;;;;;0.89;87.42;100431.06;5005078;28;20149;-77
2021/01/26 08:49:27;;;;;;;40.40;19.35;;;;;;;2.27;77.70;100433.66;5006123;28;20058;-79
2021/01/26 08:51:55;;;;;;;26.90;16.67;;;;;;;4.52;70.04;100424.59;5002583;28;20054;-81
2021/01/26 08:54:36;;;;;;;27.23;16.98;;;;;;;6.30;61.48;100425.19;4999606;28;20058;-79
2021/01/26 08:57:28;;;;;;;25.08;14.40;;;;;;;6.03;60.76;100428.13;5011808;28;20113;-78
2021/01/26 08:59:56;;;;;;;23.67;14.63;;;;;;;6.00;60.88;100433.47;5009349;28;20061;-79
2021/01/26 09:02:35;;;;;;;28.38;15.55;;;;;;;6.57;59.82;100434.44;5007136;28;20130;-79
2021/01/26 09:05:04;;;;;;;24.55;15.43;;;;;;;6.84;57.86;100429.69;4997804;28;20138;-80
2021/01/26 09:07:46;;;;;;;29.60;16.75;;;;;;;5.46;62.15;100424.38;5007991;28;20554;-81
2021/01/26 09:10:35;;;;;;;24.90;15.52;;;;;;;5.73;61.72;100432.84;4990902;28;20398;-81
2021/01/26 09:13:31;;;;;;;27.27;16.42;;;;;;;6.26;59.81;100436.69;4984189;28;20076;-83
2021/01/26 09:16:04;;;;;;;27.90;16.65;;;;;;;6.16;59.50;100440.63;4976265;28;20050;-78
2021/01/26 09:18:31;;;;;;;26.88;16.98;;;;;;;4.43;64.42;100445.78;4984847;28;20086;-81
2021/01/26 09:21:04;;;;;;;30.50;15.60;;;;;;;3.46;69.08;100448.22;4999661;28;20113;-81
2021/01/26 09:23:32;;;;;;;28.27;15.55;;;;;;;2.67;72.05;100451.56;4991590;28;20042;-80
2021/01/26 09:26:00;;;;;;;29.42;18.10;;;;;;;2.42;74.49;100459.19;4988715;28;20043;-82
2021/01/26 09:28:38;;;;;;;26.00;17.08;;;;;;;2.38;75.12;100457.56;4988088;28;20046;-82
2021/01/26 09:31:06;;;;;;;30.85;17.65;;;;;;;2.52;74.97;100460.66;5007187;28;20514;-80
2021/01/26 09:33:34;;;;;;;36.40;18.25;;;;;;;2.73;74.22;100455.72;5005320;28;20034;-82
2021/01/26 09:36:01;;;;;;;29.40;18.38;;;;;;;2.74;74.29;100462.63;4972578;28;20062;-82
2021/01/26 09:38:45;;;;;;;29.38;17.02;;;;;;;2.43;75.23;100460.91;5003325;28;20086;-81
2021/01/26 09:41:12;;;;;;;35.45;18.95;;;;;;;2.60;76.79;100464.78;4984968;28;20058;-81
2021/01/26 09:43:43;;;;;;;34.45;20.30;;;;;;;2.63;75.92;100472.47;5001612;28;20034;-81
2021/01/26 09:46:25;;;;;;;36.60;20.05;;;;;;;2.17;76.24;100468.56;5001447;28;20050;-82
2021/01/26 09:49:06;;;;;;;37.50;19.35;;;;;;;2.10;77.15;100469.63;4968509;28;20066;-81
2021/01/26 09:51:39;;;;;;;48.70;20.00;;;;;;;2.27;77.02;100481.25;4976122;28;20073;-81
2021/01/26 09:54:12;;;;;;;41.42;19.35;;;;;;;2.60;75.79;100473.41;5006807;28;20510;-81
2021/01/26 09:56:41;;;;;;;45.03;20.92;;;;;;;1.92;77.15;100482.19;4990269;28;20628;-80
2021/01/26 09:59:11;;;;;;;35.35;19.30;;;;;;;2.18;76.90;100478.06;4958163;28;20069;-81
2021/01/26 10:01:43;;;;;;;54.60;20.33;;;;;;;1.95;77.69;100479.50;4977733;28;20135;-80
2021/01/26 10:04:11;;;;;;;41.80;21.33;;;;;;;1.92;77.77;100477.00;4994321;28;20448;-82
2021/01/26 10:06:38;;;;;;;45.97;21.48;;;;;;;1.88;78.11;100483.16;4978949;28;20468;-80
2021/01/26 10:09:16;;;;;;;39.75;22.60;;;;;;;1.97;78.19;100482.06;4974970;28;20062;-79
2021/01/26 10:11:43;;;;;;;36.22;21.65;;;;;;;1.65;79.03;100475.09;5002103;28;20073;-82
2021/01/26 10:14:15;;;;;;;48.45;22.50;;;;;;;1.77;79.04;100480.84;4985330;28;20327;-82
2021/01/26 10:16:47;;;;;;;54.28;23.58;;;;;;;2.06;78.66;100475.78;4990083;28;20058;-82
2021/01/26 10:19:22;;;;;;;35.58;20.50;;;;;;;2.08;78.41;100476.59;5021557;23;20057;-79
2021/01/26 10:21:50;;;;;;;33.88;20.45;;;;;;;2.06;78.32;100474.03;4986140;28;20360;-77
2021/01/26 10:24:30;;;;;;;37.28;19.83;;;;;;;2.17;77.98;100476.38;5005125;28;20058;-78
2021/01/26 10:27:23;;;;;;;35.10;20.17;;;;;;;2.13;78.01;100473.00;5028097;28;20061;-77
2021/01/26 10:30:10;;;;;;;36.45;19.75;;;;;;;2.19;78.43;100472.81;4998372;28;20065;-79
2021/01/26 10:32:46;;;;;;;35.60;20.48;;;;;;;2.34;78.06;100471.53;5013044;28;20042;-79
2021/01/26 10:35:34;;;;;;;36.53;19.80;;;;;;;2.54;77.09;100478.78;5005734;28;20061;-80
2021/01/26 10:38:28;;;;;;;35.47;20.67;;;;;;;2.54;77.53;100479.63;4995460;28;20092;-81
2021/01/26 10:41:21;;;;;;;36.22;19.42;;;;;;;2.50;76.94;100485.81;4983163;28;20061;-80
2021/01/26 10:43:48;;;;;;;31.33;19.23;;;;;;;2.37;78.08;100486.19;4996347;28;20070;-80
2021/01/26 10:46:37;;;;;;;42.30;20.10;;;;;;;2.76;77.80;100487.69;4984490;28;20111;-81
2021/01/26 10:49:10;;;;;;;32.92;19.75;;;;;;;2.93;76.81;100487.19;4989860;28;20043;-80
2021/01/26 10:51:39;;;;;;;38.15;21.38;;;;;;;2.91;75.69;100483.78;4995659;28;20145;-78
2021/01/26 10:54:07;;;;;;;40.08;21.92;;;;;;;2.79;77.28;100479.81;5000151;28;20030;-81
2021/01/26 10:56:34;;;;;;;36.35;21.70;;;;;;;3.10;75.71;100478.00;5000015;28;20158;-81
2021/01/26 10:59:03;;;;;;;41.65;21.50;;;;;;;3.22;75.17;100482.84;4998251;28;20054;-83
2021/01/26 11:01:31;;;;;;;33.75;19.63;;;;;;;3.22;74.94;100483.69;5000367;28;20058;-83
2021/01/26 11:04:00;;;;;;;37.28;19.88;;;;;;;3.03;75.38;100482.56;5001528;28;20081;-81
2021/01/26 11:06:32;;;;;;;36.60;20.70;;;;;;;2.92;75.60;100480.25;4998201;28;20054;-80
2021/01/26 11:09:01;;;;;;;29.65;19.13;;;;;;;2.62;76.28;100486.38;5013251;28;20046;-80
2021/01/26 11:11:34;;;;;;;42.53;21.10;;;;;;;2.10;78.04;100478.25;5012346;28;20085;-80
2021/01/26 11:14:11;;;;;;;33.80;21.80;;;;;;;2.23;78.06;100476.19;5004726;28;20038;-81
2021/01/26 11:16:38;;;;;;;56.65;23.23;;;;;;;2.18;78.01;100480.66;4989837;28;20666;-80
2021/01/26 11:19:11;;;;;;;40.92;22.58;;;;;;;2.33;78.16;100485.44;5041618;23;20043;-76
2021/01/26 11:21:38;;;;;;;38.13;20.60;;;;;;;2.19;78.25;100490.16;4964521;28;20053;-78
2021/01/26 11:24:05;;;;;;;42.47;21.30;;;;;;;2.31;78.28;100484.63;4950928;28;20050;-78
2021/01/26 11:26:32;;;;;;;41.58;21.95;;;;;;;2.28;78.57;100484.69;4950488;28;20039;-77
2021/01/26 11:28:59;;;;;;;64.65;24.58;;;;;;;2.15;78.79;100486.78;4970306;28;20066;-78
2021/01/26 11:31:26;;;;;;;52.63;23.98;;;;;;;2.33;78.71;100489.78;4953348;28;20058;-78
2021/01/26 11:33:54;;;;;;;48.90;25.17;;;;;;;2.34;78.47;100488.88;4969361;28;20077;-79
2021/01/26 11:36:24;;;;;;;37.90;23.35;;;;;;;2.28;79.32;100492.50;4967480;28;20070;-79
2021/01/26 11:38:51;;;;;;;45.03;25.25;;;;;;;2.50;78.75;100488.41;4948964;28;20053;-78
2021/01/26 11:41:18;;;;;;;47.03;24.85;;;;;;;2.67;77.95;100495.75;4950432;28;20062;-77
2021/01/26 11:43:45;;;;;;;49.35;25.25;;;;;;;2.68;79.55;100496.59;4971223;28;20065;-78
2021/01/26 11:46:13;;;;;;;38.80;24.30;;;;;;;2.94;78.64;100495.84;4955305;28;20093;-79
2021/01/26 11:48:40;;;;;;;44.55;24.67;;;;;;;2.85;77.20;100494.38;4978787;28;20095;-76
2021/01/26 11:51:07;;;;;;;38.67;21.67;;;;;;;3.00;76.38;100506.91;4993197;28;20051;-78
2021/01/26 11:53:34;;;;;;;41.05;22.25;;;;;;;3.12;76.21;100497.03;5025320;23;20535;-79